Time;durP1;ratioP1;P1;durP2;ratioP2;P2;SDS_P1;SDS_P2;PMS_P1;PMS_P2;Temp;Humidity;BMP_temperature;BMP_pressure;BME280_temperature;BME280_humidity;BME280_pressure;Samples;Min_cycle;Max_cycle;Signal;HPM_P1;HPM_P2
2020/12/09 00:02:26;;;;;;;38.58;21.00;;;2.70;93.30;;;;;;5086865;28;27477;-31
2020/12/09 00:05:13;;;;;;;36.45;19.60;;;2.70;93.30;;;;;;5086268;28;27416;-31
2020/12/09 00:08:00;;;;;;;41.05;21.92;;;2.70;93.40;;;;;;5086780;28;27325;-31
2020/12/09 00:10:44;;;;;;;36.78;19.58;;;2.70;93.40;;;;;;5086666;28;27352;-30
2020/12/09 00:13:29;;;;;;;37.40;19.85;;;2.70;93.40;;;;;;5086385;28;27373;-31
2020/12/09 00:16:13;;;;;;;37.83;19.20;;;2.70;93.40;;;;;;5086389;28;27422;-30
2020/12/09 00:18:59;;;;;;;35.55;19.80;;;2.70;93.40;;;;;;5086592;28;27336;-30
2020/12/09 00:21:44;;;;;;;39.85;20.90;;;2.70;93.40;;;;;;5086583;28;27334;-30
2020/12/09 00:24:28;;;;;;;42.15;21.35;;;2.70;93.40;;;;;;5085994;28;27474;-31
2020/12/09 00:27:13;;;;;;;41.45;22.17;;;2.70;93.40;;;;;;5085940;28;27643;-30
2020/12/09 00:30:02;;;;;;;39.08;19.80;;;2.70;93.40;;;;;;5086455;28;27345;-30
2020/12/09 00:32:47;;;;;;;41.20;21.17;;;2.70;93.40;;;;;;5086013;28;27900;-30
2020/12/09 00:35:31;;;;;;;37.85;19.73;;;2.70;93.40;;;;;;5086029;28;27399;-30
2020/12/09 00:38:15;;;;;;;39.25;20.38;;;2.70;93.40;;;;;;5086045;28;27365;-30
2020/12/09 00:41:00;;;;;;;39.83;20.58;;;2.70;93.40;;;;;;5086251;28;27367;-30
2020/12/09 00:43:44;;;;;;;35.95;20.13;;;2.70;93.40;;;;;;5085333;28;27357;-31
2020/12/09 00:46:31;;;;;;;40.22;21.65;;;2.70;93.40;;;;;;5085870;28;27481;-29
2020/12/09 00:49:20;;;;;;;38.72;21.30;;;2.70;93.40;;;;;;5082646;28;27384;-31
2020/12/09 00:52:05;;;;;;;35.97;20.42;;;2.70;93.40;;;;;;5085782;28;27462;-29
2020/12/09 00:54:50;;;;;;;42.72;21.40;;;2.70;93.40;;;;;;5082109;28;27458;-30
2020/12/09 00:57:35;;;;;;;34.45;20.23;;;2.70;93.40;;;;;;5081621;28;27485;-30
2020/12/09 01:00:22;;;;;;;38.33;20.27;;;2.70;93.40;;;;;;5081999;28;27461;-30
2020/12/09 01:03:15;;;;;;;37.13;19.52;;;2.70;93.40;;;;;;5081720;28;27486;-30
2020/12/09 01:06:02;;;;;;;35.28;19.60;;;2.60;93.40;;;;;;5085558;28;27861;-30
2020/12/09 01:08:47;;;;;;;32.60;18.92;;;2.60;93.40;;;;;;5085540;28;27387;-31
2020/12/09 01:11:32;;;;;;;36.35;20.27;;;2.60;93.40;;;;;;5085823;28;27345;-30
2020/12/09 01:14:16;;;;;;;35.38;19.63;;;2.60;93.40;;;;;;5085781;28;27383;-32
2020/12/09 01:17:01;;;;;;;41.95;20.63;;;2.60;93.40;;;;;;5085585;28;27404;-31
2020/12/09 01:19:45;;;;;;;38.33;20.75;;;2.60;93.40;;;;;;5085646;28;27451;-30
2020/12/09 01:22:30;;;;;;;35.60;19.52;;;2.60;93.40;;;;;;5085169;28;27441;-30
2020/12/09 01:25:15;;;;;;;36.80;20.13;;;2.60;93.40;;;;;;5084981;28;27502;-30
2020/12/09 01:28:00;;;;;;;36.60;19.05;;;2.60;93.40;;;;;;5085490;28;27478;-30
2020/12/09 01:30:45;;;;;;;34.35;18.48;;;2.60;93.40;;;;;;5085127;28;27481;-30
2020/12/09 01:33:30;;;;;;;33.17;18.88;;;2.60;93.40;;;;;;5085483;28;27466;-32
2020/12/09 01:36:24;;;;;;;36.08;19.13;;;2.60;93.40;;;;;;5085121;28;27415;-30
2020/12/09 01:39:09;;;;;;;34.53;18.67;;;2.60;93.50;;;;;;5082085;28;27395;-32
2020/12/09 01:41:54;;;;;;;34.30;19.40;;;2.50;93.40;;;;;;5084925;28;27546;-30
2020/12/09 01:44:38;;;;;;;33.25;18.23;;;2.60;93.50;;;;;;5084237;28;27514;-32
2020/12/09 01:47:23;;;;;;;33.25;18.85;;;2.50;93.40;;;;;;5085208;28;27399;-31
2020/12/09 01:50:08;;;;;;;34.33;19.83;;;2.50;93.40;;;;;;5084010;28;27430;-31
2020/12/09 01:52:52;;;;;;;35.30;19.00;;;2.50;93.50;;;;;;5084329;28;27430;-30
2020/12/09 01:55:37;;;;;;;35.33;18.98;;;2.50;93.50;;;;;;5084834;28;27547;-30
2020/12/09 01:58:22;;;;;;;36.33;19.63;;;2.50;93.50;;;;;;5084828;28;27485;-30
2020/12/09 02:01:06;;;;;;;36.50;18.90;;;2.50;93.50;;;;;;5084703;28;27399;-31
2020/12/09 02:03:51;;;;;;;33.65;19.00;;;2.50;93.60;;;;;;5084793;28;27394;-30
2020/12/09 02:06:36;;;;;;;33.60;19.02;;;2.50;93.50;;;;;;5081046;28;27369;-29
2020/12/09 02:09:24;;;;;;;34.78;18.70;;;2.50;93.50;;;;;;5084162;28;27386;-29
2020/12/09 02:12:10;;;;;;;33.95;19.17;;;2.50;93.60;;;;;;5084764;28;27875;-29
2020/12/09 02:14:54;;;;;;;35.25;19.20;;;2.50;93.60;;;;;;5083461;28;27522;-29
2020/12/09 02:17:39;;;;;;;34.90;19.27;;;2.50;93.60;;;;;;5084274;28;27426;-30
2020/12/09 02:20:23;;;;;;;37.42;18.70;;;2.50;93.60;;;;;;5084023;28;27514;-30
2020/12/09 02:23:08;;;;;;;34.45;18.95;;;2.60;93.60;;;;;;5084510;28;28017;-30
2020/12/09 02:25:52;;;;;;;37.65;19.45;;;2.60;93.60;;;;;;5084399;28;27457;-30
2020/12/09 02:28:39;;;;;;;36.60;18.98;;;2.60;93.60;;;;;;5084348;28;27414;-31
2020/12/09 02:31:24;;;;;;;42.45;19.80;;;2.60;93.60;;;;;;5084566;28;27438;-28
2020/12/09 02:34:09;;;;;;;35.95;19.48;;;2.60;93.60;;;;;;5084503;28;27966;-29
2020/12/09 02:36:53;;;;;;;36.42;19.52;;;2.60;93.60;;;;;;5084180;28;27465;-30
2020/12/09 02:39:38;;;;;;;33.65;18.13;;;2.50;93.60;;;;;;5084582;28;27454;-30
2020/12/09 02:42:23;;;;;;;35.78;18.33;;;2.60;93.70;;;;;;5083861;28;27473;-31
2020/12/09 02:45:07;;;;;;;34.10;18.23;;;2.60;93.70;;;;;;5083499;28;27450;-30
2020/12/09 02:47:53;;;;;;;34.65;18.50;;;2.60;93.70;;;;;;5084046;28;27476;-30
2020/12/09 02:50:37;;;;;;;29.77;18.02;;;2.60;93.70;;;;;;5084089;28;27439;-29
2020/12/09 02:53:24;;;;;;;37.90;19.13;;;2.60;93.70;;;;;;5084291;28;27373;-29
2020/12/09 02:56:11;;;;;;;37.53;19.60;;;2.60;93.70;;;;;;5084199;28;27424;-29
2020/12/09 02:58:56;;;;;;;32.28;18.35;;;2.60;93.70;;;;;;5084147;28;27481;-30
2020/12/09 03:01:40;;;;;;;34.28;18.80;;;2.60;93.70;;;;;;5084261;28;27419;-30
2020/12/09 03:04:25;;;;;;;38.88;20.25;;;2.60;93.80;;;;;;5083659;28;27454;-30
2020/12/09 03:07:10;;;;;;;35.97;18.58;;;2.60;93.80;;;;;;5083770;28;27466;-30
2020/12/09 03:09:54;;;;;;;36.60;19.67;;;2.60;93.80;;;;;;5083715;28;27411;-30
2020/12/09 03:12:41;;;;;;;37.20;20.17;;;2.60;93.80;;;;;;5083629;28;27472;-30
2020/12/09 03:15:26;;;;;;;38.60;19.63;;;2.60;93.80;;;;;;5084025;28;27410;-30
2020/12/09 03:18:10;;;;;;;35.15;19.02;;;2.60;93.80;;;;;;5083912;28;27458;-30
2020/12/09 03:20:55;;;;;;;36.75;18.73;;;2.70;93.80;;;;;;5083620;28;27477;-30
2020/12/09 03:23:39;;;;;;;39.17;19.83;;;2.60;93.80;;;;;;5083604;28;27438;-30
2020/12/09 03:26:26;;;;;;;37.60;18.77;;;2.60;93.80;;;;;;5085504;28;27352;-31
2020/12/09 03:29:11;;;;;;;33.53;18.48;;;2.70;93.80;;;;;;5087447;28;27411;-29
2020/12/09 03:31:55;;;;;;;37.70;19.52;;;2.70;93.80;;;;;;5087000;28;27412;-29
2020/12/09 03:34:40;;;;;;;31.90;18.15;;;2.70;93.80;;;;;;5087308;28;27410;-30
2020/12/09 03:37:24;;;;;;;33.67;19.77;;;2.70;93.90;;;;;;5086753;28;27482;-29
2020/12/09 03:40:09;;;;;;;37.40;19.65;;;2.70;93.80;;;;;;5087158;28;27415;-29
2020/12/09 03:42:53;;;;;;;34.40;19.00;;;2.70;93.80;;;;;;5086732;28;27477;-30
2020/12/09 03:45:37;;;;;;;39.60;19.83;;;2.70;93.90;;;;;;5087252;28;27466;-30
2020/12/09 03:48:24;;;;;;;37.15;19.48;;;2.70;93.90;;;;;;5083867;28;27463;-29
2020/12/09 03:51:11;;;;;;;32.03;18.50;;;2.70;93.90;;;;;;5087152;28;27450;-29
2020/12/09 03:53:56;;;;;;;35.70;18.63;;;2.70;93.90;;;;;;5086756;28;27458;-31
2020/12/09 03:56:43;;;;;;;32.55;18.83;;;2.70;93.90;;;;;;5086733;28;27417;-29
2020/12/09 03:59:28;;;;;;;39.33;19.90;;;2.70;93.90;;;;;;5086935;28;27375;-30
2020/12/09 04:02:12;;;;;;;38.17;20.15;;;2.70;94.00;;;;;;5086796;28;28010;-29
2020/12/09 04:04:57;;;;;;;33.92;18.83;;;2.70;94.00;;;;;;5086013;28;27414;-30
2020/12/09 04:07:44;;;;;;;35.72;18.48;;;2.70;94.00;;;;;;5086503;28;27481;-29
2020/12/09 04:10:31;;;;;;;36.75;19.00;;;2.70;93.90;;;;;;5086770;28;27348;-30
2020/12/09 04:13:15;;;;;;;36.42;18.90;;;2.70;93.90;;;;;;5086726;28;27394;-31
2020/12/09 04:16:00;;;;;;;35.53;18.38;;;2.70;94.00;;;;;;5086398;28;27328;-30
2020/12/09 04:18:44;;;;;;;35.20;18.60;;;2.70;94.00;;;;;;5086640;28;27410;-30
2020/12/09 04:21:29;;;;;;;34.10;19.25;;;2.70;94.00;;;;;;5086593;28;27359;-30
2020/12/09 04:24:13;;;;;;;37.13;19.05;;;2.70;94.00;;;;;;5086377;28;27401;-30
2020/12/09 04:27:00;;;;;;;34.50;18.85;;;2.70;94.00;;;;;;5086197;28;27497;-30
2020/12/09 04:29:47;;;;;;;31.02;17.30;;;2.70;94.00;;;;;;5086239;28;27355;-31
2020/12/09 04:32:32;;;;;;;30.55;18.13;;;2.70;94.00;;;;;;5085396;28;27363;-30
2020/12/09 04:35:19;;;;;;;34.17;18.67;;;2.70;93.90;;;;;;5086311;28;27375;-30
2020/12/09 04:38:04;;;;;;;34.53;19.08;;;2.70;93.90;;;;;;5085915;28;27584;-31
2020/12/09 04:40:49;;;;;;;34.90;17.85;;;2.70;94.00;;;;;;5086023;28;27411;-31
2020/12/09 04:43:34;;;;;;;35.63;18.13;;;2.70;93.90;;;;;;5085375;28;27461;-31
2020/12/09 04:46:18;;;;;;;38.97;19.10;;;2.70;93.90;;;;;;5085800;28;27872;-32
2020/12/09 04:49:06;;;;;;;36.00;20.02;;;2.70;94.00;;;;;;5085888;28;27538;-31
2020/12/09 04:52:20;;;;;;;36.80;18.55;;;2.70;94.00;;;;;;5085234;28;27474;-30
2020/12/09 04:55:12;;;;;;;35.08;18.45;;;2.70;94.00;;;;;;5085758;28;27464;-30
2020/12/09 04:58:12;;;;;;;36.90;18.92;;;2.70;94.00;;;;;;5082501;28;27428;-30
2020/12/09 05:01:05;;;;;;;34.60;18.05;;;2.70;94.00;;;;;;5085477;28;27394;-30
2020/12/09 05:03:50;;;;;;;37.25;19.30;;;2.70;94.00;;;;;;5085884;28;27506;-30
2020/12/09 05:06:35;;;;;;;39.42;19.95;;;2.70;94.00;;;;;;5085636;28;27407;-31
2020/12/09 05:09:23;;;;;;;35.45;18.13;;;2.70;94.00;;;;;;5070553;28;27896;-30
2020/12/09 05:12:11;;;;;;;36.00;19.17;;;2.70;94.00;;;;;;5070967;28;27411;-30
2020/12/09 05:14:56;;;;;;;30.17;17.83;;;2.70;94.00;;;;;;5085527;28;27395;-30
2020/12/09 05:17:53;;;;;;;32.83;17.73;;;2.70;94.00;;;;;;5070686;28;27317;-30
2020/12/09 05:20:40;;;;;;;32.55;18.48;;;2.70;94.00;;;;;;5084535;28;27435;-30
2020/12/09 05:23:26;;;;;;;35.20;18.48;;;2.70;94.00;;;;;;5085493;28;27426;-30
2020/12/09 05:26:22;;;;;;;38.40;18.88;;;2.70;94.00;;;;;;5070402;28;27498;-30
2020/12/09 05:29:16;;;;;;;38.55;19.95;;;2.70;94.00;;;;;;5084762;28;27472;-31
2020/12/09 05:32:03;;;;;;;37.75;19.83;;;2.70;94.00;;;;;;5085159;28;27434;-30
2020/12/09 05:34:48;;;;;;;35.20;18.55;;;2.70;94.00;;;;;;5085205;28;27394;-30
2020/12/09 05:37:32;;;;;;;34.95;18.98;;;2.70;93.90;;;;;;5085283;28;27417;-30
2020/12/09 05:40:29;;;;;;;34.67;19.40;;;2.70;93.90;;;;;;5085194;28;27418;-30
2020/12/09 05:43:14;;;;;;;35.88;19.60;;;2.70;94.00;;;;;;5084464;28;27856;-30
2020/12/09 05:46:06;;;;;;;34.65;18.40;;;2.70;94.00;;;;;;5085238;28;27362;-30
2020/12/09 05:48:51;;;;;;;38.05;19.58;;;2.70;94.00;;;;;;5084131;28;27396;-31
2020/12/09 05:51:36;;;;;;;36.28;19.77;;;2.70;93.90;;;;;;5085219;28;27434;-30
2020/12/09 05:54:26;;;;;;;35.10;19.73;;;2.70;93.90;;;;;;5084834;28;27888;-30
2020/12/09 05:57:15;;;;;;;36.67;19.55;;;2.70;93.90;;;;;;5084335;28;27655;-31
2020/12/09 06:00:00;;;;;;;32.08;18.70;;;2.70;93.90;;;;;;5084140;28;26976;-30
2020/12/09 06:02:47;;;;;;;37.83;19.48;;;2.70;93.90;;;;;;5084830;28;27438;-28
2020/12/09 06:05:34;;;;;;;33.45;19.20;;;2.70;93.90;;;;;;5084385;28;27437;-29
2020/12/09 06:08:39;;;;;;;33.80;18.63;;;2.70;93.90;;;;;;5084662;28;27392;-30
2020/12/09 06:11:31;;;;;;;34.70;19.45;;;2.70;93.90;;;;;;5084679;28;27348;-30
2020/12/09 06:14:18;;;;;;;35.45;19.20;;;2.70;94.30;;;;;;5081575;28;27397;-30
2020/12/09 06:17:05;;;;;;;39.65;20.13;;;2.70;93.90;;;;;;5081249;28;27998;-30
2020/12/09 06:19:53;;;;;;;38.50;19.67;;;2.70;93.90;;;;;;5083816;28;27379;-30
2020/12/09 06:22:41;;;;;;;34.60;20.65;;;2.70;93.90;;;;;;5083836;28;27498;-30
2020/12/09 06:25:25;;;;;;;37.05;19.55;;;2.70;93.90;;;;;;5083626;28;27461;-31
2020/12/09 06:28:14;;;;;;;41.40;22.63;;;2.60;93.90;;;;;;5083672;28;28093;-30
2020/12/09 06:31:10;;;;;;;37.63;19.50;;;2.60;93.90;;;;;;5080371;28;27500;-31
2020/12/09 06:33:59;;;;;;;36.60;18.88;;;2.60;93.90;;;;;;5084369;28;27404;-31
2020/12/09 06:36:54;;;;;;;36.78;18.77;;;2.60;93.90;;;;;;5084263;28;27415;-30
2020/12/09 06:39:38;;;;;;;43.40;21.63;;;2.60;94.00;;;;;;5070518;28;27419;-31
2020/12/09 06:42:23;;;;;;;38.83;20.42;;;2.70;94.10;;;;;;5084208;28;27435;-31
2020/12/09 06:45:11;;;;;;;39.22;20.63;;;2.60;94.00;;;;;;5083866;28;27466;-30
2020/12/09 06:48:15;;;;;;;39.55;20.30;;;2.60;94.00;;;;;;5084451;28;27395;-31
2020/12/09 06:51:00;;;;;;;42.00;20.55;;;2.70;94.10;;;;;;5083586;28;27419;-30
2020/12/09 06:53:44;;;;;;;37.63;20.35;;;2.70;94.10;;;;;;5084303;28;27490;-29
2020/12/09 06:56:31;;;;;;;39.35;21.35;;;2.70;94.10;;;;;;5083354;28;27494;-29
2020/12/09 06:59:28;;;;;;;40.88;21.20;;;2.60;94.10;;;;;;5084011;28;27456;-29
2020/12/09 07:02:29;;;;;;;44.80;22.77;;;2.60;94.10;;;;;;5087625;28;27391;-29
2020/12/09 07:05:15;;;;;;;39.40;21.33;;;2.60;94.10;;;;;;5087309;28;27442;-30
2020/12/09 07:08:04;;;;;;;40.17;20.98;;;2.70;94.20;;;;;;5087604;28;27469;-30
2020/12/09 07:10:51;;;;;;;39.75;21.85;;;2.60;94.10;;;;;;5087496;28;27367;-30
2020/12/09 07:13:38;;;;;;;42.60;22.00;;;2.70;94.20;;;;;;5087465;28;27385;-30
2020/12/09 07:16:29;;;;;;;39.75;20.85;;;2.70;94.20;;;;;;5087059;28;27447;-29
2020/12/09 07:19:17;;;;;;;43.15;22.05;;;2.70;94.20;;;;;;5087665;28;27336;-29
2020/12/09 07:22:02;;;;;;;43.38;21.85;;;2.70;94.30;;;;;;5087374;28;27344;-30
2020/12/09 07:24:49;;;;;;;37.42;20.65;;;2.70;94.20;;;;;;5087334;28;27474;-30
2020/12/09 07:27:36;;;;;;;39.92;20.58;;;2.70;94.20;;;;;;5087491;28;27547;-31
2020/12/09 07:30:21;;;;;;;37.58;20.40;;;2.70;94.10;;;;;;5087606;28;27469;-31
2020/12/09 07:33:06;;;;;;;37.83;20.35;;;2.80;94.20;;;;;;5084219;28;27447;-31
2020/12/09 07:35:59;;;;;;;40.03;21.73;;;2.80;94.20;;;;;;5087390;28;27411;-30
2020/12/09 07:38:44;;;;;;;43.13;21.73;;;2.80;94.20;;;;;;5086331;28;27470;-30
2020/12/09 07:41:29;;;;;;;39.90;21.73;;;2.80;94.20;;;;;;5087313;28;27403;-30
2020/12/09 07:44:14;;;;;;;42.28;21.75;;;2.80;94.10;;;;;;5086109;28;27390;-32
2020/12/09 07:46:59;;;;;;;38.38;19.98;;;2.80;94.10;;;;;;5087142;28;27420;-30
2020/12/09 07:49:51;;;;;;;40.90;21.40;;;2.80;94.10;;;;;;5086883;28;27469;-30
2020/12/09 07:52:40;;;;;;;41.35;20.55;;;2.80;94.10;;;;;;5087193;28;27435;-30
2020/12/09 07:55:25;;;;;;;38.88;22.33;;;2.90;94.10;;;;;;5086818;28;27418;-30
2020/12/09 07:58:14;;;;;;;39.45;20.38;;;2.90;94.10;;;;;;5087000;28;27407;-31
2020/12/09 08:00:58;;;;;;;39.13;20.40;;;2.90;94.00;;;;;;5086712;28;27588;-30
2020/12/09 08:03:43;;;;;;;38.92;20.52;;;3.00;94.00;;;;;;5086933;28;27344;-30
2020/12/09 08:06:28;;;;;;;37.65;20.42;;;3.00;94.30;;;;;;5086646;28;27335;-30
2020/12/09 08:09:16;;;;;;;37.70;19.83;;;3.10;93.90;;;;;;5086548;28;27372;-30
2020/12/09 08:12:01;;;;;;;38.10;19.20;;;3.10;93.80;;;;;;5085325;28;27372;-30
2020/12/09 08:14:48;;;;;;;38.40;20.17;;;3.10;93.80;;;;;;5086104;28;27438;-30
2020/12/09 08:17:33;;;;;;;36.88;20.02;;;3.10;93.60;;;;;;5086010;28;27426;-31
2020/12/09 08:20:18;;;;;;;35.63;20.05;;;3.20;93.60;;;;;;5083393;28;27407;-30
2020/12/09 08:23:05;;;;;;;38.55;19.67;;;3.20;93.60;;;;;;5085770;28;27462;-30
2020/12/09 08:25:51;;;;;;;39.25;20.98;;;3.20;93.40;;;;;;5083314;28;27446;-30
2020/12/09 08:28:45;;;;;;;38.13;19.88;;;3.20;93.40;;;;;;5086265;28;27435;-30
2020/12/09 08:31:29;;;;;;;39.05;20.90;;;3.30;93.40;;;;;;5086419;28;27450;-30
2020/12/09 08:34:14;;;;;;;40.85;20.27;;;3.30;93.30;;;;;;5085678;28;27462;-31
2020/12/09 08:36:59;;;;;;;39.17;21.55;;;3.30;93.30;;;;;;5086170;28;27458;-31
2020/12/09 08:39:46;;;;;;;39.35;21.55;;;3.30;93.30;;;;;;5082067;28;27485;-30
2020/12/09 08:42:33;;;;;;;38.85;20.52;;;3.40;93.30;;;;;;5086019;28;27857;-30
2020/12/09 08:45:21;;;;;;;40.88;23.25;;;3.40;93.30;;;;;;5085709;28;27593;-30
2020/12/09 08:48:08;;;;;;;40.15;20.00;;;3.40;93.30;;;;;;5086277;28;27387;-31
2020/12/09 08:50:53;;;;;;;41.33;22.15;;;3.40;93.30;;;;;;5085912;28;27531;-30
2020/12/09 08:53:40;;;;;;;44.72;22.67;;;3.40;93.30;;;;;;5085804;28;27466;-31
2020/12/09 08:56:28;;;;;;;41.35;20.15;;;3.40;93.30;;;;;;5082822;28;27423;-30
2020/12/09 08:59:15;;;;;;;39.40;21.02;;;3.40;93.30;;;;;;5082219;28;27387;-31
2020/12/09 09:02:00;;;;;;;42.65;20.08;;;3.40;93.20;;;;;;5085805;28;27324;-30
2020/12/09 09:04:47;;;;;;;40.13;20.42;;;3.50;93.30;;;;;;5085515;28;27344;-30
2020/12/09 09:07:35;;;;;;;38.10;21.70;;;3.50;93.20;;;;;;5085455;28;27587;-31
2020/12/09 09:10:19;;;;;;;35.63;20.17;;;3.50;93.20;;;;;;5085970;28;27459;-29
2020/12/09 09:13:06;;;;;;;32.42;18.58;;;3.50;93.20;;;;;;5085552;28;27438;-29
2020/12/09 09:15:53;;;;;;;40.15;21.52;;;3.50;93.20;;;;;;5081790;28;27450;-30
2020/12/09 09:18:40;;;;;;;36.40;19.77;;;3.50;93.10;;;;;;5082267;28;27378;-30
2020/12/09 09:21:25;;;;;;;39.85;21.02;;;3.60;93.20;;;;;;5085818;28;27343;-30
2020/12/09 09:24:09;;;;;;;40.28;21.25;;;3.60;93.20;;;;;;5084359;28;27375;-28
2020/12/09 09:26:54;;;;;;;38.88;21.00;;;3.60;93.10;;;;;;5085303;28;27344;-30
2020/12/09 09:29:39;;;;;;;38.08;20.73;;;3.60;93.20;;;;;;5085574;28;27465;-29
2020/12/09 09:32:25;;;;;;;40.97;22.23;;;3.60;93.10;;;;;;5085039;28;27371;-30
2020/12/09 09:35:10;;;;;;;40.22;20.65;;;3.70;93.10;;;;;;5085229;28;27382;-30
2020/12/09 09:37:58;;;;;;;38.38;21.60;;;3.70;93.10;;;;;;5085191;28;27328;-31
2020/12/09 09:40:42;;;;;;;39.85;20.75;;;3.70;93.00;;;;;;5085393;28;27671;-29
2020/12/09 09:43:29;;;;;;;35.85;19.95;;;3.80;93.00;;;;;;5084364;28;27390;-30
2020/12/09 09:46:14;;;;;;;38.30;21.25;;;3.80;92.90;;;;;;5085318;28;27445;-31
2020/12/09 09:48:59;;;;;;;36.45;21.33;;;3.90;92.80;;;;;;5085262;28;27462;-30
2020/12/09 09:51:46;;;;;;;39.33;22.00;;;3.90;92.80;;;;;;5084946;28;27585;-30
2020/12/09 09:54:32;;;;;;;37.90;20.70;;;3.90;92.70;;;;;;5084984;28;27463;-31
2020/12/09 09:57:16;;;;;;;38.38;19.90;;;4.00;93.10;;;;;;5084894;28;27403;-29
2020/12/09 10:00:01;;;;;;;38.88;21.30;;;4.00;92.80;;;;;;5085070;28;27464;-29
2020/12/09 10:02:46;;;;;;;37.78;21.33;;;4.00;92.70;;;;;;5081046;28;27455;-29
2020/12/09 10:05:33;;;;;;;34.88;20.55;;;4.00;92.60;;;;;;5084814;28;27451;-29
2020/12/09 10:08:21;;;;;;;41.28;22.50;;;4.10;92.60;;;;;;5084758;28;27385;-31
2020/12/09 10:11:06;;;;;;;36.90;20.25;;;4.10;92.60;;;;;;5084924;28;27373;-29
2020/12/09 10:13:51;;;;;;;35.97;19.75;;;4.10;92.60;;;;;;5084626;28;27387;-30
2020/12/09 10:16:40;;;;;;;36.67;20.17;;;4.10;92.60;;;;;;5080901;28;27379;-30
2020/12/09 10:19:27;;;;;;;36.50;20.60;;;4.10;92.50;;;;;;5084609;28;27411;-30
2020/12/09 10:22:14;;;;;;;42.95;22.10;;;4.10;92.50;;;;;;5084717;28;27909;-30
2020/12/09 10:25:01;;;;;;;37.58;20.77;;;4.10;92.50;;;;;;5083497;28;27360;-31
2020/12/09 10:27:46;;;;;;;34.20;20.85;;;4.10;92.60;;;;;;5084720;28;27382;-31
2020/12/09 10:30:33;;;;;;;35.25;20.42;;;4.00;92.60;;;;;;5083914;28;27317;-31
2020/12/09 10:33:18;;;;;;;42.53;22.08;;;4.00;92.70;;;;;;5084541;28;27477;-30
2020/12/09 10:36:04;;;;;;;36.67;20.02;;;3.90;92.80;;;;;;5083830;28;27606;-31
2020/12/09 10:38:52;;;;;;;34.53;20.02;;;3.90;92.90;;;;;;5084595;28;27450;-30
2020/12/09 10:41:40;;;;;;;37.53;20.67;;;3.90;93.00;;;;;;5084468;28;26896;-31
2020/12/09 10:44:27;;;;;;;34.63;19.58;;;3.90;93.00;;;;;;5083409;28;27397;-30
2020/12/09 10:47:12;;;;;;;35.03;20.10;;;3.90;93.00;;;;;;5082683;28;27479;-30
2020/12/09 10:49:57;;;;;;;34.75;19.73;;;3.90;93.00;;;;;;5084176;28;27333;-30
2020/12/09 10:52:44;;;;;;;35.95;19.85;;;3.90;92.90;;;;;;5084386;28;27328;-30
2020/12/09 10:55:30;;;;;;;40.78;20.08;;;3.90;92.80;;;;;;5084237;28;27441;-31
2020/12/09 10:58:18;;;;;;;34.35;20.00;;;3.90;92.80;;;;;;5083424;28;27410;-30
2020/12/09 11:01:06;;;;;;;35.65;20.27;;;4.00;92.90;;;;;;5083991;28;27371;-30
2020/12/09 11:03:54;;;;;;;31.25;17.88;;;4.00;92.80;;;;;;5083836;28;27381;-31
2020/12/09 11:06:38;;;;;;;33.47;19.42;;;4.00;92.80;;;;;;5083828;28;27478;-30
2020/12/09 11:09:23;;;;;;;35.00;19.08;;;4.00;92.80;;;;;;5080121;28;27474;-30
2020/12/09 11:12:07;;;;;;;35.58;19.40;;;4.00;92.80;;;;;;5084105;28;27443;-31
2020/12/09 11:14:52;;;;;;;31.50;19.42;;;4.10;92.80;;;;;;5084090;28;27320;-30
2020/12/09 11:17:40;;;;;;;38.28;20.63;;;4.20;92.70;;;;;;5083720;28;27984;-30
2020/12/09 11:20:27;;;;;;;35.35;20.67;;;4.20;92.60;;;;;;5083987;28;27568;-31
2020/12/09 11:23:12;;;;;;;33.17;18.90;;;4.20;92.50;;;;;;5083746;28;27438;-30
2020/12/09 11:25:57;;;;;;;35.55;20.73;;;4.30;92.60;;;;;;5083569;28;27580;-30
2020/12/09 11:28:42;;;;;;;32.35;19.35;;;4.40;92.60;;;;;;5083541;28;27512;-30
2020/12/09 11:31:26;;;;;;;36.97;20.33;;;4.50;92.50;;;;;;5080596;28;27469;-30
2020/12/09 11:34:14;;;;;;;33.95;21.15;;;4.50;92.40;;;;;;5083854;28;27446;-30
2020/12/09 11:36:59;;;;;;;31.38;19.35;;;4.60;92.30;;;;;;5080343;28;27358;-30
2020/12/09 11:39:44;;;;;;;32.83;19.20;;;4.70;92.20;;;;;;5080224;28;27876;-29
2020/12/09 11:42:31;;;;;;;32.55;18.52;;;4.70;92.10;;;;;;5083011;28;27312;-29
2020/12/09 11:45:19;;;;;;;32.35;18.83;;;4.70;92.00;;;;;;5082524;28;27435;-29
2020/12/09 11:48:06;;;;;;;33.05;18.88;;;4.70;91.90;;;;;;5085507;28;27468;-29
2020/12/09 11:50:51;;;;;;;33.50;19.13;;;4.70;91.80;;;;;;5083842;28;27435;-30
2020/12/09 11:53:39;;;;;;;35.85;19.23;;;4.70;91.90;;;;;;5086236;28;27427;-30
2020/12/09 11:56:24;;;;;;;33.80;19.75;;;4.60;91.90;;;;;;5086844;28;26884;-30
2020/12/09 11:59:12;;;;;;;32.33;19.35;;;4.60;92.00;;;;;;5087076;28;27347;-31
2020/12/09 12:01:59;;;;;;;34.28;20.35;;;4.60;92.20;;;;;;5086961;28;27887;-30
2020/12/09 12:04:43;;;;;;;34.92;20.48;;;4.60;92.20;;;;;;5086703;28;27482;-30
2020/12/09 12:07:28;;;;;;;32.13;19.70;;;4.60;92.20;;;;;;5082695;28;27412;-31
2020/12/09 12:10:15;;;;;;;32.67;19.08;;;4.50;92.10;;;;;;5082897;28;27428;-31
2020/12/09 12:13:00;;;;;;;32.78;19.75;;;4.50;92.10;;;;;;5086719;28;27442;-30
2020/12/09 12:15:45;;;;;;;35.58;20.58;;;4.40;92.20;;;;;;5086423;28;27479;-31
2020/12/09 12:18:29;;;;;;;39.25;21.98;;;4.40;92.30;;;;;;5086490;28;27387;-31
2020/12/09 12:21:14;;;;;;;36.22;21.58;;;4.40;92.40;;;;;;5086041;28;27462;-31
2020/12/09 12:24:02;;;;;;;35.78;21.73;;;4.30;92.50;;;;;;5086195;28;27445;-32
2020/12/09 12:26:49;;;;;;;40.45;22.42;;;4.30;92.60;;;;;;5086549;28;27491;-31
2020/12/09 12:29:36;;;;;;;40.38;21.58;;;4.30;92.60;;;;;;5086638;28;27328;-31
2020/12/09 12:32:21;;;;;;;40.50;21.85;;;4.20;92.70;;;;;;5086248;28;27340;-29
2020/12/09 12:35:06;;;;;;;46.38;22.00;;;4.20;92.80;;;;;;5086326;28;27398;-29
2020/12/09 12:37:52;;;;;;;41.20;21.92;;;4.20;92.90;;;;;;5086299;28;27407;-30
2020/12/09 12:40:40;;;;;;;38.85;21.33;;;4.20;93.00;;;;;;5086446;28;27340;-30
2020/12/09 12:43:24;;;;;;;38.70;21.27;;;4.10;93.00;;;;;;5085876;28;27464;-30
2020/12/09 12:46:12;;;;;;;34.42;21.10;;;4.10;92.90;;;;;;5086239;28;27861;-31
2020/12/09 12:48:59;;;;;;;38.70;21.95;;;4.10;92.90;;;;;;5082155;28;27481;-30
2020/12/09 12:51:44;;;;;;;35.30;20.52;;;4.10;92.90;;;;;;5085922;28;27376;-31
2020/12/09 12:54:31;;;;;;;36.70;21.05;;;4.10;92.90;;;;;;5082622;28;27418;-30
2020/12/09 12:57:15;;;;;;;41.47;22.23;;;4.10;92.90;;;;;;5085526;28;27407;-31
2020/12/09 13:00:03;;;;;;;33.83;20.70;;;4.10;92.90;;;;;;5082518;28;26851;-30
2020/12/09 13:02:48;;;;;;;35.55;19.70;;;4.10;93.00;;;;;;5085797;28;27455;-30
2020/12/09 13:05:32;;;;;;;34.25;21.52;;;4.10;92.90;;;;;;5085749;28;27300;-32
2020/12/09 13:08:20;;;;;;;33.92;20.67;;;4.10;93.00;;;;;;5085884;28;27972;-31
2020/12/09 13:11:08;;;;;;;31.75;19.63;;;4.10;92.90;;;;;;5085549;28;27429;-31
2020/12/09 13:13:56;;;;;;;33.80;20.20;;;4.10;92.90;;;;;;5085618;28;27414;-31
2020/12/09 13:16:50;;;;;;;36.03;19.98;;;4.10;92.80;;;;;;5084976;28;27390;-30
2020/12/09 13:19:37;;;;;;;34.90;20.48;;;4.10;92.90;;;;;;5085685;28;27383;-29
2020/12/09 13:22:22;;;;;;;39.42;20.48;;;4.00;93.00;;;;;;5085366;28;27507;-29
2020/12/09 13:25:08;;;;;;;33.85;20.40;;;4.00;92.90;;;;;;5085214;28;27364;-28
2020/12/09 13:27:55;;;;;;;36.45;20.60;;;4.00;92.90;;;;;;5085341;28;27600;-29
2020/12/09 13:30:42;;;;;;;33.97;19.38;;;4.00;92.90;;;;;;5082239;28;27372;-29
2020/12/09 13:33:27;;;;;;;33.38;20.35;;;4.00;92.80;;;;;;5085144;28;27514;-30
2020/12/09 13:36:19;;;;;;;37.67;20.90;;;4.00;92.80;;;;;;5085533;28;27420;-30
2020/12/09 13:39:07;;;;;;;34.80;20.77;;;4.00;92.90;;;;;;5084666;28;27494;-31
2020/12/09 13:41:51;;;;;;;36.45;21.60;;;4.00;92.80;;;;;;5084529;28;27581;-30
2020/12/09 13:44:39;;;;;;;42.80;22.85;;;4.00;92.90;;;;;;5083633;28;27448;-30
2020/12/09 13:47:23;;;;;;;36.08;20.48;;;4.00;92.80;;;;;;5085128;28;27446;-31
2020/12/09 13:50:08;;;;;;;35.97;19.90;;;4.00;92.80;;;;;;5085315;28;27323;-31
2020/12/09 13:52:53;;;;;;;34.80;21.05;;;4.00;92.90;;;;;;5084206;28;27382;-29
2020/12/09 13:55:37;;;;;;;39.53;21.02;;;3.90;92.80;;;;;;5084930;28;27423;-31
2020/12/09 13:58:22;;;;;;;36.53;20.55;;;3.90;92.90;;;;;;5084894;28;27469;-31
2020/12/09 14:01:06;;;;;;;32.60;20.20;;;3.90;92.90;;;;;;5084770;28;27485;-30
2020/12/09 14:03:51;;;;;;;37.53;21.50;;;3.90;92.90;;;;;;5084179;28;27451;-30
2020/12/09 14:06:36;;;;;;;32.72;19.60;;;3.80;92.90;;;;;;5084705;28;27489;-30
2020/12/09 14:09:20;;;;;;;37.92;20.67;;;3.80;92.80;;;;;;5083527;28;27439;-30
2020/12/09 14:12:05;;;;;;;37.50;19.20;;;3.80;92.90;;;;;;5084603;28;27403;-30
2020/12/09 14:14:50;;;;;;;31.80;18.95;;;3.70;93.10;;;;;;5084802;28;27415;-30